createdAt,value
2019-06-01T00:00:52.234Z,19.55
2019-06-01T00:03:24.010Z,24.63
2019-06-01T00:05:55.685Z,23.75
2019-06-01T00:08:27.577Z,20.50
2019-06-01T00:10:59.444Z,25.48
2019-06-01T00:13:31.222Z,19.95
2019-06-01T00:16:02.893Z,23.35
2019-06-01T00:18:34.817Z,28.50
2019-06-01T00:21:06.659Z,24.10
2019-06-01T00:23:38.429Z,39.18
2019-06-01T00:26:10.103Z,18.07
2019-06-01T00:28:41.983Z,14.98
2019-06-01T00:31:13.760Z,17.85
2019-06-01T00:33:45.537Z,16.80
2019-06-01T00:36:18.243Z,13.68
2019-06-01T00:38:50.045Z,12.63
2019-06-01T00:41:22.294Z,17.23
2019-06-01T00:43:54.072Z,10.80
2019-06-01T00:46:25.625Z,11.15
2019-06-01T00:48:57.427Z,15.18
2019-06-01T00:51:29.207Z,14.35
2019-06-01T00:54:00.961Z,18.65
2019-06-01T00:56:32.855Z,17.65
2019-06-01T00:59:04.613Z,23.47
2019-06-01T01:01:36.100Z,14.40
2019-06-01T01:04:07.962Z,14.93
2019-06-01T01:06:39.759Z,14.75
2019-06-01T01:09:11.739Z,25.23
2019-06-01T01:11:44.821Z,12.05
2019-06-01T01:14:16.517Z,20.48
2019-06-01T01:16:49.400Z,16.95
2019-06-01T01:19:21.094Z,16.77
2019-06-01T01:21:54.052Z,20.88
2019-06-01T01:24:25.774Z,19.25
2019-06-01T01:26:57.446Z,16.75
2019-06-01T01:29:29.311Z,30.60
2019-06-01T01:32:01.203Z,22.60
2019-06-01T01:34:32.969Z,19.75
2019-06-01T01:37:04.957Z,20.90
2019-06-01T01:39:36.540Z,16.35
2019-06-01T01:42:08.722Z,19.90
2019-06-01T01:44:40.580Z,16.05
2019-06-01T01:47:14.372Z,23.98
2019-06-01T01:49:45.582Z,21.07
2019-06-01T01:52:17.565Z,18.15
2019-06-01T01:54:50.589Z,20.52
2019-06-01T01:57:22.246Z,23.15
2019-06-01T01:59:55.302Z,14.47
2019-06-01T02:02:27.135Z,17.10
2019-06-01T02:04:59.932Z,16.32
2019-06-01T02:07:31.479Z,19.20
2019-06-01T02:10:04.196Z,19.57
2019-06-01T02:12:35.664Z,17.37
2019-06-01T02:15:08.960Z,18.82
2019-06-01T02:17:40.859Z,22.95
2019-06-01T02:20:12.905Z,22.27
2019-06-01T02:22:44.409Z,20.57
2019-06-01T02:25:16.493Z,29.67
2019-06-01T02:27:47.969Z,21.00
2019-06-01T02:30:20.368Z,19.32
2019-06-01T02:32:51.925Z,15.05
2019-06-01T02:35:23.806Z,16.52
2019-06-01T02:37:56.524Z,16.95
2019-06-01T02:40:28.362Z,14.55
2019-06-01T02:43:01.339Z,15.45
2019-06-01T02:45:32.938Z,16.12
2019-06-01T02:48:06.325Z,18.20
2019-06-01T02:50:38.249Z,16.20
2019-06-01T02:53:10.128Z,12.63
2019-06-01T02:55:42.008Z,13.98
2019-06-01T02:58:13.762Z,19.10
2019-06-01T03:00:48.630Z,19.10
2019-06-01T03:03:20.504Z,26.55
2019-06-01T03:05:53.494Z,15.78
2019-06-01T03:08:25.270Z,26.57
2019-06-01T03:10:59.694Z,24.02
2019-06-01T03:13:33.866Z,22.55
2019-06-01T03:16:08.866Z,18.12
2019-06-01T03:18:43.128Z,24.02
2019-06-01T03:21:17.626Z,19.87
2019-06-01T03:23:50.809Z,19.15
2019-06-01T03:26:24.997Z,17.37
2019-06-01T03:29:00.111Z,18.50
2019-06-01T03:31:32.361Z,21.93
2019-06-01T03:34:06.478Z,16.62
2019-06-01T03:36:37.632Z,22.87
2019-06-01T03:39:10.419Z,20.48
2019-06-01T03:41:42.729Z,27.73
2019-06-01T03:44:14.176Z,22.22
2019-06-01T03:46:45.998Z,24.27
2019-06-01T03:49:17.728Z,27.93
2019-06-01T03:51:49.511Z,26.70
2019-06-01T03:54:21.300Z,45.80
2019-06-01T03:56:53.180Z,27.40
2019-06-01T03:59:24.956Z,30.40
2019-06-01T04:01:56.834Z,25.27
2019-06-01T04:04:28.601Z,27.22
2019-06-01T04:07:01.278Z,21.93
2019-06-01T04:09:32.780Z,20.00
2019-06-01T04:12:05.505Z,23.02
2019-06-01T04:14:37.030Z,20.50
2019-06-01T04:17:10.085Z,18.15
2019-06-01T04:19:41.927Z,21.95
2019-06-01T04:22:14.128Z,22.60
2019-06-01T04:24:45.467Z,17.80
2019-06-01T04:27:17.267Z,22.25
2019-06-01T04:29:49.034Z,23.85
2019-06-01T04:32:20.912Z,38.85
2019-06-01T04:34:52.714Z,22.87
2019-06-01T04:37:24.554Z,20.68
2019-06-01T04:39:57.268Z,17.67
2019-06-01T04:42:28.945Z,21.00
2019-06-01T04:45:00.701Z,16.37
2019-06-01T04:47:32.701Z,15.63
2019-06-01T04:50:07.034Z,14.98
2019-06-01T04:52:38.807Z,15.10
2019-06-01T04:55:11.186Z,19.15
2019-06-01T04:57:42.551Z,21.20
2019-06-01T05:00:27.886Z,16.73
2019-06-01T05:03:05.023Z,17.62
2019-06-01T05:05:28.127Z,21.05
2019-06-01T05:07:59.697Z,16.50
2019-06-01T05:10:31.473Z,17.32
2019-06-01T05:13:03.253Z,17.12
2019-06-01T05:15:35.026Z,20.92
2019-06-01T05:18:07.872Z,14.07
2019-06-01T05:20:39.602Z,16.05
2019-06-01T05:23:12.667Z,17.92
2019-06-01T05:25:44.163Z,13.20
2019-06-01T05:28:15.733Z,17.27
2019-06-01T05:30:47.514Z,19.30
2019-06-01T05:33:35.525Z,13.85
2019-06-01T05:35:52.717Z,13.83
2019-06-01T05:38:24.491Z,15.70
2019-06-01T05:40:56.456Z,20.52
2019-06-01T05:43:28.252Z,16.93
2019-06-01T05:45:59.618Z,15.05
2019-06-01T05:48:31.397Z,29.12
2019-06-01T05:51:03.157Z,16.30
2019-06-01T05:53:34.948Z,12.80
2019-06-01T05:56:06.723Z,14.98
2019-06-01T05:58:38.501Z,17.45
2019-06-01T06:01:10.404Z,12.47
2019-06-01T06:03:42.156Z,13.13
2019-06-01T06:06:13.935Z,12.93
2019-06-01T06:08:45.708Z,12.33
2019-06-01T06:11:17.487Z,17.30
2019-06-01T06:13:49.349Z,12.47
2019-06-01T06:16:22.490Z,15.28
2019-06-01T06:18:54.059Z,13.58
2019-06-01T06:21:25.491Z,16.82
2019-06-01T06:23:56.884Z,8.28
2019-06-01T06:26:28.273Z,9.40
2019-06-01T06:28:59.706Z,9.33
2019-06-01T06:31:31.061Z,11.65
2019-06-01T06:34:02.486Z,9.43
2019-06-01T06:36:33.834Z,8.95
2019-06-01T06:39:07.591Z,6.30
2019-06-01T06:41:39.877Z,9.60
2019-06-01T06:44:11.134Z,9.48
2019-06-01T06:46:42.459Z,9.70
2019-06-01T06:49:15.003Z,12.85
2019-06-01T06:51:46.462Z,10.00
2019-06-01T06:54:17.882Z,11.12
2019-06-01T06:56:49.089Z,7.78
2019-06-01T06:59:20.774Z,12.50
2019-06-01T07:01:52.107Z,13.00
2019-06-01T07:04:23.366Z,12.85
2019-06-01T07:06:54.750Z,8.45
2019-06-01T07:09:26.200Z,16.80
2019-06-01T07:11:57.685Z,10.58
2019-06-01T07:14:29.460Z,8.00
2019-06-01T07:17:01.226Z,28.57
2019-06-01T07:19:32.885Z,12.37
2019-06-01T07:22:04.578Z,14.35
2019-06-01T07:24:36.335Z,17.10
2019-06-01T07:27:08.015Z,18.20
2019-06-01T07:29:39.435Z,11.68
2019-06-01T07:32:11.682Z,11.08
2019-06-01T07:34:43.242Z,17.87
2019-06-01T07:37:15.036Z,9.58
2019-06-01T07:39:46.704Z,11.08
2019-06-01T07:42:23.011Z,9.10
2019-06-01T07:44:52.388Z,6.60
2019-06-01T07:47:24.997Z,11.22
2019-06-01T07:49:56.708Z,8.40
2019-06-01T07:52:28.556Z,14.63
2019-06-01T07:55:00.132Z,9.63
2019-06-01T07:57:31.846Z,11.45
2019-06-01T08:00:05.211Z,9.23
2019-06-01T08:02:36.887Z,16.60
2019-06-01T08:05:09.157Z,11.88
2019-06-01T08:07:40.645Z,15.95
2019-06-01T08:10:12.712Z,10.25
2019-06-01T08:12:44.139Z,15.45
2019-06-01T08:15:15.872Z,11.25
2019-06-01T08:17:47.650Z,6.85
2019-06-01T08:20:19.427Z,8.88
2019-06-01T08:22:51.197Z,25.43
2019-06-01T08:25:24.208Z,10.08
2019-06-01T08:27:55.873Z,7.97
2019-06-01T08:30:28.641Z,7.80
2019-06-01T08:33:00.152Z,10.88
2019-06-01T08:35:32.999Z,5.90
2019-06-01T08:38:04.522Z,8.70
2019-06-01T08:40:36.298Z,14.98
2019-06-01T08:43:08.877Z,14.40
2019-06-01T08:45:40.262Z,11.33
2019-06-01T08:48:11.930Z,4.25
2019-06-01T08:50:46.119Z,5.95
2019-06-01T08:53:16.917Z,7.28
2019-06-01T08:55:48.677Z,4.72
2019-06-01T08:58:20.474Z,6.20
2019-06-01T09:00:52.230Z,9.33
2019-06-01T09:03:25.726Z,10.13
2019-06-01T09:05:57.218Z,5.28
2019-06-01T09:08:28.996Z,12.55
2019-06-01T09:11:00.805Z,8.10
2019-06-01T09:13:33.299Z,7.60
2019-06-01T09:16:05.879Z,4.62
2019-06-01T09:18:37.754Z,6.95
2019-06-01T09:21:09.963Z,3.85
2019-06-01T09:23:41.698Z,5.10
2019-06-01T09:26:13.495Z,6.70
2019-06-01T09:28:45.151Z,6.37
2019-06-01T09:31:16.924Z,11.50
2019-06-01T09:33:48.724Z,12.98
2019-06-01T09:36:22.831Z,6.60
2019-06-01T09:38:54.522Z,7.15
2019-06-01T09:41:26.461Z,9.03
2019-06-01T09:43:59.330Z,70.22
2019-06-01T09:46:32.115Z,8.30
2019-06-01T09:49:04.476Z,8.13
2019-06-01T09:51:37.627Z,9.08
2019-06-01T09:54:09.464Z,7.22
2019-06-01T09:56:41.154Z,6.87
2019-06-01T09:59:12.935Z,6.62
2019-06-01T10:01:44.609Z,5.78
2019-06-01T10:04:16.361Z,4.47
2019-06-01T10:06:48.142Z,5.30
2019-06-01T10:09:19.919Z,6.55
2019-06-01T10:11:51.795Z,3.25
2019-06-01T10:14:23.486Z,3.60
2019-06-01T10:16:55.262Z,5.15
2019-06-01T10:19:43.123Z,6.08
2019-06-01T10:22:31.003Z,9.53
2019-06-01T10:25:02.913Z,4.20
2019-06-01T10:27:34.778Z,5.53
2019-06-01T10:30:08.801Z,4.20
2019-06-01T10:32:40.287Z,5.22
2019-06-01T10:35:12.365Z,6.67
2019-06-01T10:37:43.943Z,5.40
2019-06-01T10:40:16.782Z,5.58
2019-06-01T10:42:48.312Z,3.30
2019-06-01T10:45:19.971Z,5.87
2019-06-01T10:47:51.871Z,4.28
2019-06-01T10:50:23.434Z,5.28
2019-06-01T10:52:54.895Z,3.92
2019-06-01T10:55:26.808Z,4.53
2019-06-01T10:57:58.752Z,2.25
2019-06-01T11:00:39.668Z,4.90
2019-06-01T11:03:03.737Z,4.30
2019-06-01T11:05:36.630Z,5.67
2019-06-01T11:08:08.519Z,3.47
2019-06-01T11:10:40.988Z,5.12
2019-06-01T11:13:12.481Z,5.47
2019-06-01T11:15:44.670Z,5.22
2019-06-01T11:18:16.544Z,6.20
2019-06-01T11:20:48.441Z,5.20
2019-06-01T11:23:20.332Z,2.72
2019-06-01T11:25:52.097Z,2.47
2019-06-01T11:28:23.877Z,4.60
2019-06-01T11:30:55.634Z,3.15
2019-06-01T11:33:27.427Z,3.65
2019-06-01T11:35:59.204Z,6.45
2019-06-01T11:38:31.083Z,3.08
2019-06-01T11:41:02.841Z,2.45
2019-06-01T11:43:34.721Z,3.98
2019-06-01T11:46:06.608Z,3.08
2019-06-01T11:48:39.210Z,5.30
2019-06-01T11:51:10.786Z,2.90
2019-06-01T11:53:43.475Z,5.25
2019-06-01T11:56:15.038Z,6.30
2019-06-01T11:58:46.942Z,5.95
2019-06-01T12:01:18.690Z,1.90
2019-06-01T12:03:50.588Z,4.47
2019-06-01T12:06:22.453Z,5.97
2019-06-01T12:08:54.122Z,4.60
2019-06-01T12:11:25.922Z,1.70
2019-06-01T12:13:57.684Z,3.95
2019-06-01T12:16:29.473Z,8.95
2019-06-01T12:19:01.657Z,5.22
2019-06-01T12:21:33.435Z,6.12
2019-06-01T12:24:05.640Z,3.02
2019-06-01T12:26:37.395Z,4.42
2019-06-01T12:29:09.258Z,5.72
2019-06-01T12:31:41.698Z,3.62
2019-06-01T12:34:13.648Z,3.33
2019-06-01T12:36:46.398Z,4.00
2019-06-01T12:39:18.229Z,2.20
2019-06-01T12:41:49.897Z,5.28
2019-06-01T12:44:21.676Z,3.30
2019-06-01T12:46:53.451Z,3.27
2019-06-01T12:49:25.317Z,5.95
2019-06-01T12:51:57.093Z,5.87
2019-06-01T12:54:28.987Z,4.28
2019-06-01T12:57:00.864Z,4.10
2019-06-01T12:59:32.741Z,6.67
2019-06-01T13:02:04.606Z,3.42
2019-06-01T13:04:36.486Z,4.03
2019-06-01T13:07:08.161Z,2.77
2019-06-01T13:09:39.951Z,4.92
2019-06-01T13:12:11.629Z,6.15
2019-06-01T13:14:43.408Z,4.53
2019-06-01T13:17:15.280Z,3.25
2019-06-01T13:19:47.441Z,2.12
2019-06-01T13:22:19.348Z,29.98
2019-06-01T13:24:52.027Z,4.03
2019-06-01T13:27:23.818Z,6.80
2019-06-01T13:29:55.596Z,5.47
2019-06-01T13:32:27.372Z,6.15
2019-06-01T13:34:59.235Z,7.05
2019-06-01T13:37:31.136Z,7.33
2019-06-01T13:40:05.462Z,6.60
2019-06-01T13:42:36.934Z,4.87
2019-06-01T13:45:08.834Z,2.33
2019-06-01T13:47:41.410Z,4.55
2019-06-01T13:50:13.072Z,3.30
2019-06-01T13:52:45.846Z,2.50
2019-06-01T13:55:17.556Z,6.35
2019-06-01T13:57:50.454Z,4.92
2019-06-01T14:00:30.220Z,2.85
2019-06-01T14:02:57.634Z,5.15
2019-06-01T14:05:29.063Z,3.95
2019-06-01T14:08:00.938Z,4.80
2019-06-01T14:10:32.823Z,4.97
2019-06-01T14:13:05.533Z,3.77
2019-06-01T14:15:37.418Z,4.97
2019-06-01T14:18:09.075Z,7.20
2019-06-01T14:20:40.849Z,3.25
2019-06-01T14:23:12.520Z,3.37
2019-06-01T14:25:44.295Z,4.17
2019-06-01T14:28:16.072Z,5.80
2019-06-01T14:30:48.477Z,3.70
2019-06-01T14:33:20.239Z,4.20
2019-06-01T14:35:52.841Z,4.97
2019-06-01T14:38:24.507Z,4.95
2019-06-01T14:40:57.320Z,7.25
2019-06-01T14:43:28.881Z,5.70
2019-06-01T14:46:00.741Z,4.33
2019-06-01T14:48:32.623Z,4.70
2019-06-01T14:51:04.728Z,5.62
2019-06-01T14:53:36.379Z,6.30
2019-06-01T14:56:08.081Z,7.37
2019-06-01T14:58:39.845Z,9.38
2019-06-01T15:01:11.625Z,6.00
2019-06-01T15:03:43.404Z,5.20
2019-06-01T15:06:15.261Z,7.28
2019-06-01T15:09:07.618Z,9.25
2019-06-01T15:11:20.350Z,7.35
2019-06-01T15:13:52.328Z,10.93
2019-06-01T15:16:24.126Z,6.95
2019-06-01T15:18:56.171Z,9.10
2019-06-01T15:21:27.985Z,9.15
2019-06-01T15:23:59.745Z,5.65
2019-06-01T15:26:31.519Z,6.17
2019-06-01T15:29:03.326Z,10.48
2019-06-01T15:31:35.181Z,11.08
2019-06-01T15:34:07.073Z,8.40
2019-06-01T15:36:38.951Z,13.18
2019-06-01T15:39:24.336Z,7.70
2019-06-01T15:41:44.246Z,11.73
2019-06-01T15:44:15.919Z,14.10
2019-06-01T15:46:47.710Z,10.23
2019-06-01T15:49:20.703Z,6.95
2019-06-01T15:51:53.656Z,10.00
2019-06-01T15:54:26.810Z,12.90
2019-06-01T15:56:58.670Z,7.47
2019-06-01T15:59:30.466Z,13.05
2019-06-01T16:02:03.461Z,9.78
2019-06-01T16:04:34.941Z,9.13
2019-06-01T16:07:06.596Z,6.42
2019-06-01T16:09:42.656Z,10.40
2019-06-01T16:12:11.597Z,9.60
2019-06-01T16:14:43.375Z,9.75
2019-06-01T16:17:15.255Z,10.70
2019-06-01T16:19:47.134Z,6.53
2019-06-01T16:22:19.015Z,10.38
2019-06-01T16:24:50.892Z,12.33
2019-06-01T16:27:22.547Z,8.38
2019-06-01T16:29:54.647Z,9.03
2019-06-01T16:32:26.427Z,11.53
2019-06-01T16:34:58.750Z,17.07
2019-06-01T16:37:30.507Z,10.45
2019-06-01T16:40:05.927Z,17.32
2019-06-01T16:42:35.260Z,18.27
2019-06-01T16:45:10.056Z,14.75
2019-06-01T16:47:41.491Z,15.03
2019-06-01T16:50:14.514Z,15.83
2019-06-01T16:52:45.843Z,11.93
2019-06-01T16:55:17.632Z,18.40
2019-06-01T16:57:49.521Z,14.45
2019-06-01T17:00:24.137Z,11.53
2019-06-01T17:02:56.985Z,13.25
2019-06-01T17:05:28.913Z,16.00
2019-06-01T17:08:00.800Z,17.07
2019-06-01T17:10:32.980Z,10.88
2019-06-01T17:13:06.808Z,18.65
2019-06-01T17:15:37.984Z,21.00
2019-06-01T17:18:10.589Z,9.03
2019-06-01T17:20:44.791Z,13.45
2019-06-01T17:23:27.492Z,10.90
2019-06-01T17:25:49.996Z,12.03
2019-06-01T17:28:21.781Z,12.53
2019-06-01T17:30:53.551Z,11.35
2019-06-01T17:33:25.326Z,12.00
2019-06-01T17:35:58.551Z,14.10
2019-06-01T17:38:30.193Z,9.15
2019-06-01T17:41:02.257Z,12.20
2019-06-01T17:43:33.967Z,11.05
2019-06-01T17:46:05.744Z,8.18
2019-06-01T17:48:37.727Z,10.15
2019-06-01T17:51:10.220Z,12.10
2019-06-01T19:18:52.212Z,12.68
2019-06-01T19:21:23.986Z,20.32
2019-06-01T19:23:55.886Z,14.45
2019-06-01T19:26:27.765Z,12.35
2019-06-01T19:28:59.725Z,14.10
2019-06-01T19:31:31.620Z,21.05
2019-06-01T19:34:05.138Z,12.78
2019-06-01T19:36:38.640Z,12.73
2019-06-01T19:39:11.115Z,10.18
2019-06-01T19:41:45.138Z,13.70
2019-06-01T19:44:15.951Z,12.82
2019-06-01T19:46:47.811Z,16.60
2019-06-01T19:49:19.669Z,12.82
2019-06-01T19:51:51.564Z,15.53
2019-06-01T19:54:24.565Z,15.50
2019-06-01T19:56:56.343Z,15.55
2019-06-01T19:59:28.121Z,21.42
2019-06-01T20:01:59.981Z,16.23
2019-06-01T20:04:31.879Z,23.20
2019-06-01T20:07:03.769Z,28.65
2019-06-01T20:09:35.637Z,51.23
2019-06-01T20:12:12.082Z,36.80
2019-06-01T20:14:40.517Z,24.65
2019-06-01T20:17:13.314Z,26.57
2019-06-01T20:19:45.203Z,31.73
2019-06-01T20:22:17.089Z,26.15
2019-06-01T20:24:48.859Z,29.63
2019-06-01T20:27:21.655Z,38.78
2019-06-01T20:29:53.329Z,64.62
2019-06-01T20:32:25.212Z,25.65
2019-06-01T20:34:56.981Z,33.50
2019-06-01T20:37:29.668Z,16.42
2019-06-01T20:40:01.457Z,11.95
2019-06-01T20:42:33.334Z,14.95
2019-06-01T20:45:08.159Z,21.68
2019-06-01T20:47:39.532Z,9.60
2019-06-01T20:50:12.600Z,23.65
2019-06-01T20:52:44.126Z,12.80
2019-06-01T20:55:17.574Z,13.53
2019-06-01T20:57:49.009Z,10.45
2019-06-01T21:00:21.771Z,8.08
2019-06-01T21:02:53.702Z,8.40
2019-06-01T21:05:25.440Z,8.75
2019-06-01T21:07:57.853Z,13.53
2019-06-01T21:10:29.815Z,10.93
2019-06-01T21:13:01.710Z,9.58
2019-06-01T21:15:33.577Z,8.63
2019-06-01T21:18:05.555Z,10.78
2019-06-01T21:20:37.447Z,11.73
2019-06-01T21:23:09.327Z,10.65
2019-06-01T21:25:41.207Z,8.25
2019-06-01T21:28:15.804Z,7.40
2019-06-01T21:30:46.093Z,11.85
2019-06-01T21:33:19.459Z,12.58
2019-06-01T21:35:51.586Z,12.03
2019-06-01T21:38:23.725Z,12.18
2019-06-01T21:40:55.532Z,11.28
2019-06-01T21:43:34.868Z,14.00
2019-06-01T21:46:00.626Z,10.80
2019-06-01T21:48:32.516Z,14.50
2019-06-01T21:51:04.223Z,7.47
2019-06-01T21:53:36.068Z,9.10
2019-06-01T21:56:07.844Z,11.00
2019-06-01T21:58:39.706Z,9.33
2019-06-01T22:01:11.383Z,7.95
2019-06-01T22:03:43.260Z,8.98
2019-06-01T22:06:14.932Z,9.08
2019-06-01T22:08:52.520Z,11.78
2019-06-01T22:11:19.818Z,9.50
2019-06-01T22:13:51.713Z,11.38
2019-06-01T22:16:23.749Z,8.15
2019-06-01T22:18:55.675Z,8.30
2019-06-01T22:21:27.950Z,15.00
2019-06-01T22:23:59.514Z,9.75
2019-06-01T22:26:31.219Z,8.23
2019-06-01T22:29:03.094Z,7.75
2019-06-01T22:31:34.865Z,9.95
2019-06-01T22:34:06.522Z,7.10
2019-06-01T22:36:38.400Z,6.95
2019-06-01T22:39:10.280Z,4.40
2019-06-01T22:41:42.175Z,5.10
2019-06-01T22:44:14.036Z,3.95
2019-06-01T22:46:45.737Z,6.80
2019-06-01T22:49:17.488Z,4.97
2019-06-01T22:51:49.281Z,4.17
2019-06-01T22:54:21.161Z,5.05
2019-06-01T22:56:53.040Z,6.28
2019-06-01T22:59:24.922Z,5.28
2019-06-01T23:01:56.675Z,7.15
2019-06-01T23:04:29.311Z,5.78
2019-06-01T23:07:00.967Z,6.83
2019-06-01T23:09:32.844Z,4.72
2019-06-01T23:12:04.704Z,4.60
2019-06-01T23:14:36.602Z,7.35
2019-06-01T23:17:08.281Z,6.22
2019-06-01T23:19:40.055Z,4.65
2019-06-01T23:22:11.837Z,5.67
2019-06-01T23:24:43.712Z,5.62
2019-06-01T23:27:15.568Z,8.53
2019-06-01T23:29:47.452Z,6.17
2019-06-01T23:32:19.143Z,7.30
2019-06-01T23:34:50.920Z,6.55
2019-06-01T23:37:22.777Z,7.15
2019-06-01T23:39:54.674Z,7.25
2019-06-01T23:42:26.817Z,5.30
2019-06-01T23:44:58.739Z,6.80
2019-06-01T23:47:31.354Z,6.55
2019-06-01T23:50:03.333Z,6.20
2019-06-01T23:52:34.885Z,7.03
2019-06-01T23:55:07.992Z,8.10
2019-06-01T23:57:39.462Z,16.00
